sensor_id;sensor_type;location;lat;lon;timestamp;P1;durP1;ratioP1;P2;durP2;ratioP2
5722;SDS011;2886;49.722;8.612;2022-08-14T00:01:08;5.33;;;3.87;;
5722;SDS011;2886;49.722;8.612;2022-08-14T00:03:34;4.20;;;3.80;;
5722;SDS011;2886;49.722;8.612;2022-08-14T00:06:01;5.57;;;4.10;;
5722;SDS011;2886;49.722;8.612;2022-08-14T00:08:28;4.73;;;4.00;;
5722;SDS011;2886;49.722;8.612;2022-08-14T00:10:54;7.60;;;4.60;;
5722;SDS011;2886;49.722;8.612;2022-08-14T00:13:21;12.27;;;4.57;;
5722;SDS011;2886;49.722;8.612;2022-08-14T00:15:53;9.10;;;4.70;;
5722;SDS011;2886;49.722;8.612;2022-08-14T00:18:21;5.10;;;4.20;;
5722;SDS011;2886;49.722;8.612;2022-08-14T00:20:49;6.77;;;4.50;;
5722;SDS011;2886;49.722;8.612;2022-08-14T00:23:15;6.73;;;4.50;;
5722;SDS011;2886;49.722;8.612;2022-08-14T00:25:43;4.60;;;4.10;;
5722;SDS011;2886;49.722;8.612;2022-08-14T00:28:12;5.90;;;4.60;;
5722;SDS011;2886;49.722;8.612;2022-08-14T00:30:38;10.07;;;4.40;;
5722;SDS011;2886;49.722;8.612;2022-08-14T00:33:05;9.70;;;5.30;;
5722;SDS011;2886;49.722;8.612;2022-08-14T00:35:31;5.57;;;4.57;;
5722;SDS011;2886;49.722;8.612;2022-08-14T00:37:57;6.27;;;5.10;;
5722;SDS011;2886;49.722;8.612;2022-08-14T00:40:23;6.57;;;4.50;;
5722;SDS011;2886;49.722;8.612;2022-08-14T00:42:49;7.13;;;5.13;;
5722;SDS011;2886;49.722;8.612;2022-08-14T00:45:15;7.87;;;4.80;;
5722;SDS011;2886;49.722;8.612;2022-08-14T00:47:43;6.40;;;4.70;;
5722;SDS011;2886;49.722;8.612;2022-08-14T00:50:11;6.53;;;5.50;;
5722;SDS011;2886;49.722;8.612;2022-08-14T00:52:38;8.83;;;4.67;;
5722;SDS011;2886;49.722;8.612;2022-08-14T00:55:06;5.33;;;4.20;;
5722;SDS011;2886;49.722;8.612;2022-08-14T00:57:33;4.80;;;4.30;;
5722;SDS011;2886;49.722;8.612;2022-08-14T01:00:00;6.57;;;4.50;;
5722;SDS011;2886;49.722;8.612;2022-08-14T01:02:31;5.47;;;4.30;;
5722;SDS011;2886;49.722;8.612;2022-08-14T01:05:00;5.20;;;4.70;;
5722;SDS011;2886;49.722;8.612;2022-08-14T01:07:28;5.57;;;4.07;;
5722;SDS011;2886;49.722;8.612;2022-08-14T01:09:56;4.70;;;3.80;;
5722;SDS011;2886;49.722;8.612;2022-08-14T01:12:26;12.40;;;4.63;;
5722;SDS011;2886;49.722;8.612;2022-08-14T01:14:53;17.87;;;5.47;;
5722;SDS011;2886;49.722;8.612;2022-08-14T01:17:21;4.80;;;3.90;;
5722;SDS011;2886;49.722;8.612;2022-08-14T01:19:47;4.93;;;4.37;;
5722;SDS011;2886;49.722;8.612;2022-08-14T01:22:32;4.30;;;3.80;;
5722;SDS011;2886;49.722;8.612;2022-08-14T01:25:00;7.30;;;4.27;;
5722;SDS011;2886;49.722;8.612;2022-08-14T01:27:26;5.60;;;4.30;;
5722;SDS011;2886;49.722;8.612;2022-08-14T01:29:54;4.63;;;4.00;;
5722;SDS011;2886;49.722;8.612;2022-08-14T01:32:21;4.23;;;3.80;;
5722;SDS011;2886;49.722;8.612;2022-08-14T01:34:50;7.33;;;3.80;;
5722;SDS011;2886;49.722;8.612;2022-08-14T01:37:21;5.20;;;4.67;;
5722;SDS011;2886;49.722;8.612;2022-08-14T01:39:49;5.00;;;3.70;;
5722;SDS011;2886;49.722;8.612;2022-08-14T01:42:16;6.83;;;4.40;;
5722;SDS011;2886;49.722;8.612;2022-08-14T01:44:42;6.17;;;4.10;;
5722;SDS011;2886;49.722;8.612;2022-08-14T01:47:08;5.27;;;4.23;;
5722;SDS011;2886;49.722;8.612;2022-08-14T01:49:39;5.90;;;4.70;;
5722;SDS011;2886;49.722;8.612;2022-08-14T01:52:05;5.73;;;4.20;;
5722;SDS011;2886;49.722;8.612;2022-08-14T01:54:32;6.40;;;4.47;;
5722;SDS011;2886;49.722;8.612;2022-08-14T01:56:58;7.63;;;4.57;;
5722;SDS011;2886;49.722;8.612;2022-08-14T01:59:28;5.23;;;4.67;;
5722;SDS011;2886;49.722;8.612;2022-08-14T02:02:03;5.00;;;4.50;;
5722;SDS011;2886;49.722;8.612;2022-08-14T02:04:36;4.60;;;3.93;;
5722;SDS011;2886;49.722;8.612;2022-08-14T02:07:03;4.60;;;3.60;;
5722;SDS011;2886;49.722;8.612;2022-08-14T02:09:30;6.37;;;4.43;;
5722;SDS011;2886;49.722;8.612;2022-08-14T02:11:59;7.37;;;5.33;;
5722;SDS011;2886;49.722;8.612;2022-08-14T02:14:27;9.73;;;4.67;;
5722;SDS011;2886;49.722;8.612;2022-08-14T02:16:53;5.67;;;4.70;;
5722;SDS011;2886;49.722;8.612;2022-08-14T02:19:23;8.37;;;5.20;;
5722;SDS011;2886;49.722;8.612;2022-08-14T02:21:54;4.90;;;3.83;;
5722;SDS011;2886;49.722;8.612;2022-08-14T02:24:24;4.37;;;3.97;;
5722;SDS011;2886;49.722;8.612;2022-08-14T02:26:53;8.00;;;4.80;;
5722;SDS011;2886;49.722;8.612;2022-08-14T02:29:22;6.03;;;4.23;;
5722;SDS011;2886;49.722;8.612;2022-08-14T02:31:53;4.83;;;4.17;;
5722;SDS011;2886;49.722;8.612;2022-08-14T02:34:25;4.80;;;4.17;;
5722;SDS011;2886;49.722;8.612;2022-08-14T02:37:00;6.10;;;4.07;;
5722;SDS011;2886;49.722;8.612;2022-08-14T02:39:28;4.80;;;4.27;;
5722;SDS011;2886;49.722;8.612;2022-08-14T02:41:55;8.43;;;5.47;;
5722;SDS011;2886;49.722;8.612;2022-08-14T02:44:24;6.10;;;4.47;;
5722;SDS011;2886;49.722;8.612;2022-08-14T02:46:51;4.93;;;4.20;;
5722;SDS011;2886;49.722;8.612;2022-08-14T02:49:19;4.77;;;3.97;;
5722;SDS011;2886;49.722;8.612;2022-08-14T02:51:51;5.93;;;4.70;;
5722;SDS011;2886;49.722;8.612;2022-08-14T02:54:18;6.43;;;4.30;;
5722;SDS011;2886;49.722;8.612;2022-08-14T02:56:44;7.97;;;4.60;;
5722;SDS011;2886;49.722;8.612;2022-08-14T02:59:10;6.73;;;4.67;;
5722;SDS011;2886;49.722;8.612;2022-08-14T03:01:38;5.77;;;4.87;;
5722;SDS011;2886;49.722;8.612;2022-08-14T03:04:04;7.13;;;4.87;;
5722;SDS011;2886;49.722;8.612;2022-08-14T03:06:31;5.93;;;4.47;;
5722;SDS011;2886;49.722;8.612;2022-08-14T03:08:57;7.57;;;4.80;;
5722;SDS011;2886;49.722;8.612;2022-08-14T03:11:24;7.53;;;3.97;;
5722;SDS011;2886;49.722;8.612;2022-08-14T03:13:50;5.77;;;4.73;;
5722;SDS011;2886;49.722;8.612;2022-08-14T03:16:21;5.30;;;4.60;;
5722;SDS011;2886;49.722;8.612;2022-08-14T03:18:49;7.70;;;4.77;;
5722;SDS011;2886;49.722;8.612;2022-08-14T03:21:18;6.60;;;4.53;;
5722;SDS011;2886;49.722;8.612;2022-08-14T03:23:47;6.17;;;5.00;;
5722;SDS011;2886;49.722;8.612;2022-08-14T03:26:15;6.17;;;4.87;;
5722;SDS011;2886;49.722;8.612;2022-08-14T03:28:47;8.37;;;5.23;;
5722;SDS011;2886;49.722;8.612;2022-08-14T03:31:14;9.47;;;5.40;;
5722;SDS011;2886;49.722;8.612;2022-08-14T03:33:41;6.70;;;4.20;;
5722;SDS011;2886;49.722;8.612;2022-08-14T03:36:09;10.23;;;4.70;;
5722;SDS011;2886;49.722;8.612;2022-08-14T03:38:38;6.07;;;4.90;;
5722;SDS011;2886;49.722;8.612;2022-08-14T03:41:14;7.33;;;5.40;;
5722;SDS011;2886;49.722;8.612;2022-08-14T03:43:44;5.73;;;4.70;;
5722;SDS011;2886;49.722;8.612;2022-08-14T03:46:12;9.87;;;5.47;;
5722;SDS011;2886;49.722;8.612;2022-08-14T03:48:38;6.00;;;5.10;;
5722;SDS011;2886;49.722;8.612;2022-08-14T03:51:06;6.40;;;4.60;;
5722;SDS011;2886;49.722;8.612;2022-08-14T03:53:34;6.93;;;5.70;;
5722;SDS011;2886;49.722;8.612;2022-08-14T03:56:05;5.50;;;4.93;;
5722;SDS011;2886;49.722;8.612;2022-08-14T03:58:40;6.57;;;4.60;;
5722;SDS011;2886;49.722;8.612;2022-08-14T04:01:17;6.80;;;5.60;;
5722;SDS011;2886;49.722;8.612;2022-08-14T04:03:45;8.63;;;4.67;;
5722;SDS011;2886;49.722;8.612;2022-08-14T04:06:12;6.50;;;5.40;;
5722;SDS011;2886;49.722;8.612;2022-08-14T04:08:39;8.17;;;5.53;;
5722;SDS011;2886;49.722;8.612;2022-08-14T04:11:06;6.20;;;5.27;;
5722;SDS011;2886;49.722;8.612;2022-08-14T04:13:32;7.60;;;5.30;;
5722;SDS011;2886;49.722;8.612;2022-08-14T04:16:00;7.40;;;5.07;;
5722;SDS011;2886;49.722;8.612;2022-08-14T04:18:27;6.57;;;5.03;;
5722;SDS011;2886;49.722;8.612;2022-08-14T04:20:54;8.17;;;5.37;;
5722;SDS011;2886;49.722;8.612;2022-08-14T04:23:22;9.33;;;5.63;;
5722;SDS011;2886;49.722;8.612;2022-08-14T04:25:49;10.80;;;5.57;;
5722;SDS011;2886;49.722;8.612;2022-08-14T04:28:18;8.40;;;4.90;;
5722;SDS011;2886;49.722;8.612;2022-08-14T04:30:44;11.60;;;5.20;;
5722;SDS011;2886;49.722;8.612;2022-08-14T04:33:10;7.57;;;5.73;;
5722;SDS011;2886;49.722;8.612;2022-08-14T04:35:36;9.10;;;5.83;;
5722;SDS011;2886;49.722;8.612;2022-08-14T04:38:09;5.33;;;4.60;;
5722;SDS011;2886;49.722;8.612;2022-08-14T04:40:54;20.00;;;6.67;;
5722;SDS011;2886;49.722;8.612;2022-08-14T04:43:38;6.60;;;5.13;;
5722;SDS011;2886;49.722;8.612;2022-08-14T04:46:07;8.90;;;5.70;;
5722;SDS011;2886;49.722;8.612;2022-08-14T04:48:39;6.77;;;5.67;;
5722;SDS011;2886;49.722;8.612;2022-08-14T04:51:06;6.20;;;5.20;;
5722;SDS011;2886;49.722;8.612;2022-08-14T04:53:34;7.73;;;5.10;;
5722;SDS011;2886;49.722;8.612;2022-08-14T04:56:02;6.50;;;5.03;;
5722;SDS011;2886;49.722;8.612;2022-08-14T04:58:30;6.17;;;5.20;;
5722;SDS011;2886;49.722;8.612;2022-08-14T05:00:57;10.30;;;5.67;;
5722;SDS011;2886;49.722;8.612;2022-08-14T05:03:24;5.97;;;5.30;;
5722;SDS011;2886;49.722;8.612;2022-08-14T05:05:55;7.90;;;5.77;;
5722;SDS011;2886;49.722;8.612;2022-08-14T05:08:22;7.07;;;5.20;;
5722;SDS011;2886;49.722;8.612;2022-08-14T05:10:50;7.63;;;5.30;;
5722;SDS011;2886;49.722;8.612;2022-08-14T05:13:18;6.27;;;5.23;;
5722;SDS011;2886;49.722;8.612;2022-08-14T05:15:45;6.90;;;5.30;;
5722;SDS011;2886;49.722;8.612;2022-08-14T05:18:14;8.07;;;5.90;;
5722;SDS011;2886;49.722;8.612;2022-08-14T05:20:41;12.13;;;6.30;;
5722;SDS011;2886;49.722;8.612;2022-08-14T05:23:09;11.60;;;5.93;;
5722;SDS011;2886;49.722;8.612;2022-08-14T05:25:40;9.23;;;6.50;;
5722;SDS011;2886;49.722;8.612;2022-08-14T05:28:12;9.57;;;6.60;;
5722;SDS011;2886;49.722;8.612;2022-08-14T05:30:43;9.20;;;6.73;;
5722;SDS011;2886;49.722;8.612;2022-08-14T05:33:11;8.20;;;6.23;;
5722;SDS011;2886;49.722;8.612;2022-08-14T05:35:38;7.83;;;6.57;;
5722;SDS011;2886;49.722;8.612;2022-08-14T05:38:07;7.97;;;6.40;;
5722;SDS011;2886;49.722;8.612;2022-08-14T05:40:34;7.43;;;5.63;;
5722;SDS011;2886;49.722;8.612;2022-08-14T05:43:01;12.10;;;6.07;;
5722;SDS011;2886;49.722;8.612;2022-08-14T05:45:27;9.67;;;6.33;;
5722;SDS011;2886;49.722;8.612;2022-08-14T05:47:53;8.30;;;5.57;;
5722;SDS011;2886;49.722;8.612;2022-08-14T05:50:19;8.30;;;6.10;;
5722;SDS011;2886;49.722;8.612;2022-08-14T05:52:45;6.90;;;5.93;;
5722;SDS011;2886;49.722;8.612;2022-08-14T05:55:12;7.53;;;6.17;;
5722;SDS011;2886;49.722;8.612;2022-08-14T05:57:45;8.73;;;7.07;;
5722;SDS011;2886;49.722;8.612;2022-08-14T06:00:19;9.37;;;6.83;;
5722;SDS011;2886;49.722;8.612;2022-08-14T06:02:47;8.57;;;6.60;;
5722;SDS011;2886;49.722;8.612;2022-08-14T06:05:13;7.87;;;6.50;;
5722;SDS011;2886;49.722;8.612;2022-08-14T06:07:39;9.20;;;5.50;;
5722;SDS011;2886;49.722;8.612;2022-08-14T06:10:05;16.63;;;6.67;;
5722;SDS011;2886;49.722;8.612;2022-08-14T06:12:33;9.53;;;6.43;;
5722;SDS011;2886;49.722;8.612;2022-08-14T06:14:59;13.00;;;6.80;;
5722;SDS011;2886;49.722;8.612;2022-08-14T06:17:25;8.57;;;6.43;;
5722;SDS011;2886;49.722;8.612;2022-08-14T06:19:51;8.63;;;6.47;;
5722;SDS011;2886;49.722;8.612;2022-08-14T06:22:17;8.43;;;6.57;;
5722;SDS011;2886;49.722;8.612;2022-08-14T06:24:44;19.30;;;7.30;;
5722;SDS011;2886;49.722;8.612;2022-08-14T06:27:10;16.63;;;6.93;;
5722;SDS011;2886;49.722;8.612;2022-08-14T06:29:37;8.73;;;6.67;;
5722;SDS011;2886;49.722;8.612;2022-08-14T06:32:03;10.60;;;6.20;;
5722;SDS011;2886;49.722;8.612;2022-08-14T06:34:30;7.37;;;6.00;;
5722;SDS011;2886;49.722;8.612;2022-08-14T06:36:56;7.30;;;6.00;;
5722;SDS011;2886;49.722;8.612;2022-08-14T06:39:23;8.00;;;5.80;;
5722;SDS011;2886;49.722;8.612;2022-08-14T06:41:49;9.27;;;6.50;;
5722;SDS011;2886;49.722;8.612;2022-08-14T06:44:15;9.43;;;6.40;;
5722;SDS011;2886;49.722;8.612;2022-08-14T06:46:41;6.00;;;5.10;;
5722;SDS011;2886;49.722;8.612;2022-08-14T06:49:08;7.07;;;5.67;;
5722;SDS011;2886;49.722;8.612;2022-08-14T06:51:33;7.80;;;6.70;;
5722;SDS011;2886;49.722;8.612;2022-08-14T06:53:59;11.10;;;5.90;;
5722;SDS011;2886;49.722;8.612;2022-08-14T06:56:25;10.13;;;6.03;;
5722;SDS011;2886;49.722;8.612;2022-08-14T06:58:51;6.63;;;5.97;;
5722;SDS011;2886;49.722;8.612;2022-08-14T07:01:17;7.70;;;5.80;;
5722;SDS011;2886;49.722;8.612;2022-08-14T07:04:02;6.90;;;5.83;;
5722;SDS011;2886;49.722;8.612;2022-08-14T07:06:46;7.47;;;6.00;;
5722;SDS011;2886;49.722;8.612;2022-08-14T07:09:13;7.20;;;5.97;;
5722;SDS011;2886;49.722;8.612;2022-08-14T07:11:39;7.93;;;6.57;;
5722;SDS011;2886;49.722;8.612;2022-08-14T07:14:06;8.10;;;6.27;;
5722;SDS011;2886;49.722;8.612;2022-08-14T07:16:32;6.90;;;5.80;;
5722;SDS011;2886;49.722;8.612;2022-08-14T07:18:57;6.97;;;6.27;;
5722;SDS011;2886;49.722;8.612;2022-08-14T07:21:23;7.57;;;6.33;;
5722;SDS011;2886;49.722;8.612;2022-08-14T07:23:49;6.70;;;5.83;;
5722;SDS011;2886;49.722;8.612;2022-08-14T07:26:15;6.27;;;5.67;;
5722;SDS011;2886;49.722;8.612;2022-08-14T07:28:41;8.57;;;6.40;;
5722;SDS011;2886;49.722;8.612;2022-08-14T07:31:07;7.83;;;6.30;;
5722;SDS011;2886;49.722;8.612;2022-08-14T07:33:38;6.70;;;5.93;;
5722;SDS011;2886;49.722;8.612;2022-08-14T07:36:13;6.70;;;5.63;;
5722;SDS011;2886;49.722;8.612;2022-08-14T07:38:40;10.93;;;5.80;;
5722;SDS011;2886;49.722;8.612;2022-08-14T07:41:06;7.33;;;5.30;;
5722;SDS011;2886;49.722;8.612;2022-08-14T07:43:33;7.50;;;5.53;;
5722;SDS011;2886;49.722;8.612;2022-08-14T07:46:00;6.57;;;5.83;;
5722;SDS011;2886;49.722;8.612;2022-08-14T07:48:27;9.13;;;5.53;;
5722;SDS011;2886;49.722;8.612;2022-08-14T07:50:52;6.10;;;5.50;;
5722;SDS011;2886;49.722;8.612;2022-08-14T07:53:19;12.60;;;6.33;;
5722;SDS011;2886;49.722;8.612;2022-08-14T07:55:45;7.30;;;6.20;;
5722;SDS011;2886;49.722;8.612;2022-08-14T07:58:18;6.80;;;5.43;;
5722;SDS011;2886;49.722;8.612;2022-08-14T08:00:44;6.43;;;5.17;;
5722;SDS011;2886;49.722;8.612;2022-08-14T08:03:10;6.60;;;5.13;;
5722;SDS011;2886;49.722;8.612;2022-08-14T08:05:37;6.80;;;5.93;;
5722;SDS011;2886;49.722;8.612;2022-08-14T08:08:05;6.70;;;6.00;;
5722;SDS011;2886;49.722;8.612;2022-08-14T08:10:38;6.27;;;5.57;;
5722;SDS011;2886;49.722;8.612;2022-08-14T08:13:10;6.80;;;5.43;;
5722;SDS011;2886;49.722;8.612;2022-08-14T08:15:42;6.40;;;5.70;;
5722;SDS011;2886;49.722;8.612;2022-08-14T08:18:09;8.00;;;6.70;;
5722;SDS011;2886;49.722;8.612;2022-08-14T08:20:39;8.90;;;6.10;;
5722;SDS011;2886;49.722;8.612;2022-08-14T08:23:10;5.70;;;5.20;;
5722;SDS011;2886;49.722;8.612;2022-08-14T08:25:38;8.47;;;6.23;;
5722;SDS011;2886;49.722;8.612;2022-08-14T08:28:11;6.00;;;5.40;;
5722;SDS011;2886;49.722;8.612;2022-08-14T08:30:44;9.13;;;5.93;;
5722;SDS011;2886;49.722;8.612;2022-08-14T08:33:17;10.90;;;5.70;;
5722;SDS011;2886;49.722;8.612;2022-08-14T08:35:44;5.80;;;5.20;;
5722;SDS011;2886;49.722;8.612;2022-08-14T08:38:12;6.93;;;5.87;;
5722;SDS011;2886;49.722;8.612;2022-08-14T08:40:47;6.73;;;5.70;;
5722;SDS011;2886;49.722;8.612;2022-08-14T08:45:59;6.20;;;5.50;;
5722;SDS011;2886;49.722;8.612;2022-08-14T08:48:25;11.00;;;5.80;;
5722;SDS011;2886;49.722;8.612;2022-08-14T08:51:00;7.10;;;5.77;;
5722;SDS011;2886;49.722;8.612;2022-08-14T08:53:31;6.10;;;5.50;;
5722;SDS011;2886;49.722;8.612;2022-08-14T08:55:59;6.57;;;5.97;;
5722;SDS011;2886;49.722;8.612;2022-08-14T08:58:25;5.60;;;5.00;;
5722;SDS011;2886;49.722;8.612;2022-08-14T09:00:57;6.93;;;5.90;;
5722;SDS011;2886;49.722;8.612;2022-08-14T09:03:26;8.63;;;5.60;;
5722;SDS011;2886;49.722;8.612;2022-08-14T09:05:55;6.30;;;5.70;;
5722;SDS011;2886;49.722;8.612;2022-08-14T09:08:23;6.83;;;5.53;;
5722;SDS011;2886;49.722;8.612;2022-08-14T09:10:51;6.17;;;5.20;;
5722;SDS011;2886;49.722;8.612;2022-08-14T09:13:18;7.80;;;5.27;;
5722;SDS011;2886;49.722;8.612;2022-08-14T09:15:45;7.13;;;5.57;;
5722;SDS011;2886;49.722;8.612;2022-08-14T09:18:15;5.77;;;5.03;;
5722;SDS011;2886;49.722;8.612;2022-08-14T09:20:44;7.07;;;5.43;;
5722;SDS011;2886;49.722;8.612;2022-08-14T09:23:12;5.90;;;4.90;;
5722;SDS011;2886;49.722;8.612;2022-08-14T09:25:39;6.20;;;5.60;;
5722;SDS011;2886;49.722;8.612;2022-08-14T09:28:07;6.00;;;5.40;;
5722;SDS011;2886;49.722;8.612;2022-08-14T09:30:35;6.40;;;5.77;;
5722;SDS011;2886;49.722;8.612;2022-08-14T09:33:09;6.10;;;5.00;;
5722;SDS011;2886;49.722;8.612;2022-08-14T09:44:08;5.60;;;5.10;;
5722;SDS011;2886;49.722;8.612;2022-08-14T09:46:59;5.20;;;4.70;;
5722;SDS011;2886;49.722;8.612;2022-08-14T09:49:29;5.13;;;4.63;;
5722;SDS011;2886;49.722;8.612;2022-08-14T09:52:09;4.83;;;4.33;;
5722;SDS011;2886;49.722;8.612;2022-08-14T09:57:02;7.53;;;4.43;;
5722;SDS011;2886;49.722;8.612;2022-08-14T09:59:38;4.90;;;4.40;;
5722;SDS011;2886;49.722;8.612;2022-08-14T10:02:52;4.53;;;4.13;;
5722;SDS011;2886;49.722;8.612;2022-08-14T10:05:09;5.50;;;4.40;;
5722;SDS011;2886;49.722;8.612;2022-08-14T10:07:36;4.63;;;4.20;;
5722;SDS011;2886;49.722;8.612;2022-08-14T10:10:32;4.10;;;3.73;;
5722;SDS011;2886;49.722;8.612;2022-08-14T10:13:04;5.77;;;4.27;;
5722;SDS011;2886;49.722;8.612;2022-08-14T10:15:43;7.10;;;4.03;;
5722;SDS011;2886;49.722;8.612;2022-08-14T10:18:11;4.33;;;3.90;;
5722;SDS011;2886;49.722;8.612;2022-08-14T10:20:39;5.20;;;4.27;;
5722;SDS011;2886;49.722;8.612;2022-08-14T10:23:15;5.83;;;3.70;;
5722;SDS011;2886;49.722;8.612;2022-08-14T10:25:44;4.13;;;3.73;;
5722;SDS011;2886;49.722;8.612;2022-08-14T10:28:20;5.80;;;3.53;;
5722;SDS011;2886;49.722;8.612;2022-08-14T10:30:47;4.30;;;3.90;;
5722;SDS011;2886;49.722;8.612;2022-08-14T10:33:27;6.50;;;3.23;;
5722;SDS011;2886;49.722;8.612;2022-08-14T10:35:55;3.60;;;3.20;;
5722;SDS011;2886;49.722;8.612;2022-08-14T10:38:31;3.73;;;3.43;;
5722;SDS011;2886;49.722;8.612;2022-08-14T10:41:13;4.73;;;4.30;;
5722;SDS011;2886;49.722;8.612;2022-08-14T10:43:40;3.77;;;3.47;;
5722;SDS011;2886;49.722;8.612;2022-08-14T10:46:17;3.90;;;3.60;;
5722;SDS011;2886;49.722;8.612;2022-08-14T10:48:56;4.60;;;3.47;;
5722;SDS011;2886;49.722;8.612;2022-08-14T10:51:28;3.53;;;3.23;;
5722;SDS011;2886;49.722;8.612;2022-08-14T10:53:55;3.70;;;3.40;;
5722;SDS011;2886;49.722;8.612;2022-08-14T10:56:29;3.50;;;3.20;;
5722;SDS011;2886;49.722;8.612;2022-08-14T10:59:01;3.77;;;3.47;;
5722;SDS011;2886;49.722;8.612;2022-08-14T11:01:35;4.20;;;3.60;;
5722;SDS011;2886;49.722;8.612;2022-08-14T11:04:02;3.63;;;3.33;;
5722;SDS011;2886;49.722;8.612;2022-08-14T11:06:29;9.40;;;3.67;;
5722;SDS011;2886;49.722;8.612;2022-08-14T11:08:56;3.57;;;3.27;;
5722;SDS011;2886;49.722;8.612;2022-08-14T11:11:23;3.60;;;3.30;;
5722;SDS011;2886;49.722;8.612;2022-08-14T11:13:53;3.80;;;3.50;;
5722;SDS011;2886;49.722;8.612;2022-08-14T11:16:22;4.60;;;3.80;;
5722;SDS011;2886;49.722;8.612;2022-08-14T11:18:49;4.57;;;4.17;;
5722;SDS011;2886;49.722;8.612;2022-08-14T11:21:17;3.63;;;3.33;;
5722;SDS011;2886;49.722;8.612;2022-08-14T11:23:47;4.83;;;4.00;;
5722;SDS011;2886;49.722;8.612;2022-08-14T11:26:14;3.17;;;2.93;;
5722;SDS011;2886;49.722;8.612;2022-08-14T11:28:43;3.33;;;3.03;;
5722;SDS011;2886;49.722;8.612;2022-08-14T11:31:11;3.80;;;3.50;;
5722;SDS011;2886;49.722;8.612;2022-08-14T11:33:41;4.10;;;3.47;;
5722;SDS011;2886;49.722;8.612;2022-08-14T11:36:07;4.00;;;3.60;;
5722;SDS011;2886;49.722;8.612;2022-08-14T11:38:36;5.10;;;3.33;;
5722;SDS011;2886;49.722;8.612;2022-08-14T11:41:10;3.50;;;3.20;;
5722;SDS011;2886;49.722;8.612;2022-08-14T11:43:38;5.30;;;3.30;;
5722;SDS011;2886;49.722;8.612;2022-08-14T11:46:10;3.73;;;3.43;;
5722;SDS011;2886;49.722;8.612;2022-08-14T11:48:44;3.60;;;3.30;;
5722;SDS011;2886;49.722;8.612;2022-08-14T11:51:15;3.53;;;3.23;;
5722;SDS011;2886;49.722;8.612;2022-08-14T11:53:49;3.40;;;3.10;;
5722;SDS011;2886;49.722;8.612;2022-08-14T11:56:17;4.97;;;3.00;;
5722;SDS011;2886;49.722;8.612;2022-08-14T11:58:43;3.73;;;3.30;;
5722;SDS011;2886;49.722;8.612;2022-08-14T12:01:16;4.13;;;2.90;;
5722;SDS011;2886;49.722;8.612;2022-08-14T12:03:53;3.70;;;2.80;;
5722;SDS011;2886;49.722;8.612;2022-08-14T12:06:22;4.67;;;3.43;;
5722;SDS011;2886;49.722;8.612;2022-08-14T12:08:49;3.40;;;3.10;;
5722;SDS011;2886;49.722;8.612;2022-08-14T12:11:18;3.93;;;3.57;;
5722;SDS011;2886;49.722;8.612;2022-08-14T12:13:44;4.90;;;2.80;;
5722;SDS011;2886;49.722;8.612;2022-08-14T12:16:17;5.07;;;2.90;;
5722;SDS011;2886;49.722;8.612;2022-08-14T12:18:45;3.30;;;3.00;;
5722;SDS011;2886;49.722;8.612;2022-08-14T12:21:20;3.37;;;3.07;;
5722;SDS011;2886;49.722;8.612;2022-08-14T12:24:08;3.30;;;3.07;;
5722;SDS011;2886;49.722;8.612;2022-08-14T12:26:34;3.17;;;2.97;;
5722;SDS011;2886;49.722;8.612;2022-08-14T12:31:38;2.90;;;2.70;;
5722;SDS011;2886;49.722;8.612;2022-08-14T12:34:13;7.00;;;3.80;;
5722;SDS011;2886;49.722;8.612;2022-08-14T12:36:40;3.63;;;3.20;;
5722;SDS011;2886;49.722;8.612;2022-08-14T12:39:19;12.83;;;3.67;;
5722;SDS011;2886;49.722;8.612;2022-08-14T12:41:50;2.93;;;2.73;;
5722;SDS011;2886;49.722;8.612;2022-08-14T12:44:35;3.13;;;2.93;;
5722;SDS011;2886;49.722;8.612;2022-08-14T12:47:03;3.47;;;2.77;;
5722;SDS011;2886;49.722;8.612;2022-08-14T12:49:29;3.97;;;3.40;;
5722;SDS011;2886;49.722;8.612;2022-08-14T12:51:57;3.57;;;3.27;;
5722;SDS011;2886;49.722;8.612;2022-08-14T12:54:25;3.43;;;3.17;;
5722;SDS011;2886;49.722;8.612;2022-08-14T12:57:01;4.03;;;3.20;;
5722;SDS011;2886;49.722;8.612;2022-08-14T12:59:28;3.60;;;3.30;;
5722;SDS011;2886;49.722;8.612;2022-08-14T13:01:57;3.40;;;3.10;;
5722;SDS011;2886;49.722;8.612;2022-08-14T13:04:24;3.27;;;3.00;;
5722;SDS011;2886;49.722;8.612;2022-08-14T13:06:49;4.30;;;3.43;;
5722;SDS011;2886;49.722;8.612;2022-08-14T13:09:17;3.70;;;3.40;;
5722;SDS011;2886;49.722;8.612;2022-08-14T13:11:48;3.30;;;3.00;;
5722;SDS011;2886;49.722;8.612;2022-08-14T13:14:17;4.10;;;3.73;;
5722;SDS011;2886;49.722;8.612;2022-08-14T13:16:48;3.20;;;3.00;;
5722;SDS011;2886;49.722;8.612;2022-08-14T13:19:18;3.50;;;3.20;;
5722;SDS011;2886;49.722;8.612;2022-08-14T13:21:45;3.80;;;3.30;;
5722;SDS011;2886;49.722;8.612;2022-08-14T13:24:13;3.50;;;3.20;;
5722;SDS011;2886;49.722;8.612;2022-08-14T13:26:44;3.53;;;3.13;;
5722;SDS011;2886;49.722;8.612;2022-08-14T13:29:14;3.80;;;3.20;;
5722;SDS011;2886;49.722;8.612;2022-08-14T13:31:44;3.60;;;3.30;;
5722;SDS011;2886;49.722;8.612;2022-08-14T13:34:15;4.77;;;3.50;;
5722;SDS011;2886;49.722;8.612;2022-08-14T13:36:48;6.40;;;3.13;;
5722;SDS011;2886;49.722;8.612;2022-08-14T13:39:18;3.60;;;3.30;;
5722;SDS011;2886;49.722;8.612;2022-08-14T13:41:45;3.80;;;3.50;;
5722;SDS011;2886;49.722;8.612;2022-08-14T13:44:12;4.20;;;3.50;;
5722;SDS011;2886;49.722;8.612;2022-08-14T13:46:39;3.60;;;3.30;;
5722;SDS011;2886;49.722;8.612;2022-08-14T13:49:06;6.17;;;3.43;;
5722;SDS011;2886;49.722;8.612;2022-08-14T13:51:36;3.77;;;3.47;;
5722;SDS011;2886;49.722;8.612;2022-08-14T13:54:04;4.50;;;3.50;;
5722;SDS011;2886;49.722;8.612;2022-08-14T13:56:30;4.23;;;3.27;;
5722;SDS011;2886;49.722;8.612;2022-08-14T13:59:03;4.80;;;3.90;;
5722;SDS011;2886;49.722;8.612;2022-08-14T14:01:30;3.80;;;3.40;;
5722;SDS011;2886;49.722;8.612;2022-08-14T14:03:58;4.30;;;3.90;;
5722;SDS011;2886;49.722;8.612;2022-08-14T14:06:26;4.70;;;3.77;;
5722;SDS011;2886;49.722;8.612;2022-08-14T14:08:55;4.07;;;3.67;;
5722;SDS011;2886;49.722;8.612;2022-08-14T14:11:23;5.60;;;4.13;;
5722;SDS011;2886;49.722;8.612;2022-08-14T14:13:50;3.80;;;3.50;;
5722;SDS011;2886;49.722;8.612;2022-08-14T14:16:20;3.90;;;3.60;;
5722;SDS011;2886;49.722;8.612;2022-08-14T14:18:47;4.10;;;3.80;;
5722;SDS011;2886;49.722;8.612;2022-08-14T14:21:20;4.17;;;3.87;;
5722;SDS011;2886;49.722;8.612;2022-08-14T14:23:48;4.33;;;3.80;;
5722;SDS011;2886;49.722;8.612;2022-08-14T14:26:15;4.53;;;3.73;;
5722;SDS011;2886;49.722;8.612;2022-08-14T14:28:42;4.03;;;3.57;;
5722;SDS011;2886;49.722;8.612;2022-08-14T14:31:14;7.17;;;3.60;;
5722;SDS011;2886;49.722;8.612;2022-08-14T14:33:49;4.20;;;3.13;;
5722;SDS011;2886;49.722;8.612;2022-08-14T14:36:21;3.90;;;3.60;;
5722;SDS011;2886;49.722;8.612;2022-08-14T14:38:55;4.20;;;3.80;;
5722;SDS011;2886;49.722;8.612;2022-08-14T14:41:25;3.70;;;3.40;;
5722;SDS011;2886;49.722;8.612;2022-08-14T14:43:53;3.63;;;3.17;;
5722;SDS011;2886;49.722;8.612;2022-08-14T14:46:22;5.33;;;4.10;;
5722;SDS011;2886;49.722;8.612;2022-08-14T14:48:48;5.00;;;3.83;;
5722;SDS011;2886;49.722;8.612;2022-08-14T14:51:17;4.43;;;4.03;;
5722;SDS011;2886;49.722;8.612;2022-08-14T14:53:43;4.10;;;3.70;;
5722;SDS011;2886;49.722;8.612;2022-08-14T14:56:10;4.27;;;3.70;;
5722;SDS011;2886;49.722;8.612;2022-08-14T14:58:38;3.70;;;3.40;;
5722;SDS011;2886;49.722;8.612;2022-08-14T15:01:07;4.13;;;3.77;;
5722;SDS011;2886;49.722;8.612;2022-08-14T15:03:34;3.73;;;3.43;;
5722;SDS011;2886;49.722;8.612;2022-08-14T15:06:01;4.77;;;4.07;;
5722;SDS011;2886;49.722;8.612;2022-08-14T15:08:27;4.10;;;3.80;;
5722;SDS011;2886;49.722;8.612;2022-08-14T15:10:56;3.80;;;3.50;;
5722;SDS011;2886;49.722;8.612;2022-08-14T15:13:27;3.60;;;3.30;;
5722;SDS011;2886;49.722;8.612;2022-08-14T15:15:55;4.47;;;3.13;;
5722;SDS011;2886;49.722;8.612;2022-08-14T15:18:21;8.70;;;3.80;;
5722;SDS011;2886;49.722;8.612;2022-08-14T15:20:50;4.07;;;3.50;;
5722;SDS011;2886;49.722;8.612;2022-08-14T15:23:18;4.80;;;3.97;;
5722;SDS011;2886;49.722;8.612;2022-08-14T15:25:46;4.27;;;3.77;;
5722;SDS011;2886;49.722;8.612;2022-08-14T15:28:12;3.80;;;3.50;;
5722;SDS011;2886;49.722;8.612;2022-08-14T15:30:39;4.67;;;4.27;;
5722;SDS011;2886;49.722;8.612;2022-08-14T15:33:05;4.30;;;3.90;;
5722;SDS011;2886;49.722;8.612;2022-08-14T15:35:32;6.13;;;4.07;;
5722;SDS011;2886;49.722;8.612;2022-08-14T15:37:58;5.23;;;3.90;;
5722;SDS011;2886;49.722;8.612;2022-08-14T15:40:33;6.03;;;4.60;;
5722;SDS011;2886;49.722;8.612;2022-08-14T15:43:08;3.90;;;3.60;;